sensor_id;sensor_type;location;lat;lon;timestamp;pressure;altitude;pressure_sealevel;temperature;humidity
46087;BME280;31824;49.648;8.640;2023-12-14T00:02:49;99297.88;;;6.49;100.00
46087;BME280;31824;49.648;8.640;2023-12-14T00:05:51;99297.47;;;6.45;100.00
46087;BME280;31824;49.648;8.640;2023-12-14T00:08:53;99301.47;;;6.41;100.00
46087;BME280;31824;49.648;8.640;2023-12-14T00:11:55;99313.13;;;6.45;100.00
46087;BME280;31824;49.648;8.640;2023-12-14T00:14:58;99314.16;;;6.47;100.00
46087;BME280;31824;49.648;8.640;2023-12-14T00:18:00;99318.13;;;6.52;100.00
46087;BME280;31824;49.648;8.640;2023-12-14T00:21:02;99314.66;;;6.42;100.00
46087;BME280;31824;49.648;8.640;2023-12-14T00:24:05;99317.16;;;6.32;100.00
46087;BME280;31824;49.648;8.640;2023-12-14T00:27:07;99318.25;;;6.25;100.00
46087;BME280;31824;49.648;8.640;2023-12-14T00:30:11;99320.88;;;6.25;100.00
46087;BME280;31824;49.648;8.640;2023-12-14T00:33:13;99332.25;;;6.17;100.00
46087;BME280;31824;49.648;8.640;2023-12-14T00:36:18;99333.53;;;6.12;100.00
46087;BME280;31824;49.648;8.640;2023-12-14T00:39:20;99338.84;;;6.22;100.00
46087;BME280;31824;49.648;8.640;2023-12-14T00:42:22;99339.31;;;6.18;100.00
46087;BME280;31824;49.648;8.640;2023-12-14T00:45:25;99346.66;;;6.22;100.00
46087;BME280;31824;49.648;8.640;2023-12-14T00:48:27;99350.50;;;6.17;100.00
46087;BME280;31824;49.648;8.640;2023-12-14T00:51:29;99359.63;;;6.12;100.00
46087;BME280;31824;49.648;8.640;2023-12-14T00:54:31;99360.38;;;6.02;100.00
46087;BME280;31824;49.648;8.640;2023-12-14T00:57:33;99368.97;;;5.92;100.00
46087;BME280;31824;49.648;8.640;2023-12-14T01:00:36;99378.34;;;5.99;100.00
46087;BME280;31824;49.648;8.640;2023-12-14T01:03:41;99390.59;;;5.91;100.00
46087;BME280;31824;49.648;8.640;2023-12-14T01:06:43;99391.06;;;5.87;100.00
46087;BME280;31824;49.648;8.640;2023-12-14T01:09:44;99399.34;;;5.83;100.00
46087;BME280;31824;49.648;8.640;2023-12-14T01:12:46;99409.03;;;5.84;100.00
46087;BME280;31824;49.648;8.640;2023-12-14T01:15:49;99408.72;;;5.81;100.00
46087;BME280;31824;49.648;8.640;2023-12-14T01:18:51;99417.19;;;5.70;100.00
46087;BME280;31824;49.648;8.640;2023-12-14T01:21:53;99421.16;;;5.66;100.00
46087;BME280;31824;49.648;8.640;2023-12-14T01:24:56;99426.09;;;5.63;100.00
46087;BME280;31824;49.648;8.640;2023-12-14T01:27:58;99431.16;;;5.62;100.00
46087;BME280;31824;49.648;8.640;2023-12-14T01:31:06;99446.31;;;5.57;100.00
46087;BME280;31824;49.648;8.640;2023-12-14T01:34:10;99445.84;;;5.52;100.00
46087;BME280;31824;49.648;8.640;2023-12-14T01:37:14;99447.06;;;5.56;100.00
46087;BME280;31824;49.648;8.640;2023-12-14T01:40:18;99444.31;;;5.63;100.00
46087;BME280;31824;49.648;8.640;2023-12-14T01:43:21;99450.47;;;5.55;100.00
46087;BME280;31824;49.648;8.640;2023-12-14T01:46:25;99459.63;;;5.43;100.00
46087;BME280;31824;49.648;8.640;2023-12-14T01:49:27;99460.53;;;5.34;100.00
46087;BME280;31824;49.648;8.640;2023-12-14T01:52:29;99474.50;;;5.35;100.00
46087;BME280;31824;49.648;8.640;2023-12-14T01:55:31;99476.00;;;5.33;100.00
46087;BME280;31824;49.648;8.640;2023-12-14T01:58:33;99484.44;;;5.30;100.00
46087;BME280;31824;49.648;8.640;2023-12-14T02:01:39;99490.44;;;5.29;100.00
46087;BME280;31824;49.648;8.640;2023-12-14T02:04:41;99483.22;;;5.27;100.00
46087;BME280;31824;49.648;8.640;2023-12-14T02:07:43;99491.03;;;5.35;100.00
46087;BME280;31824;49.648;8.640;2023-12-14T02:10:45;99493.63;;;5.35;100.00
46087;BME280;31824;49.648;8.640;2023-12-14T02:13:47;99500.84;;;5.38;100.00
46087;BME280;31824;49.648;8.640;2023-12-14T02:16:50;99503.59;;;5.31;100.00
46087;BME280;31824;49.648;8.640;2023-12-14T02:19:52;99503.91;;;5.43;100.00
46087;BME280;31824;49.648;8.640;2023-12-14T02:22:55;99515.56;;;5.46;100.00
46087;BME280;31824;49.648;8.640;2023-12-14T02:25:57;99508.84;;;5.48;100.00
46087;BME280;31824;49.648;8.640;2023-12-14T02:28:59;99509.44;;;5.54;100.00
46087;BME280;31824;49.648;8.640;2023-12-14T02:32:01;99516.19;;;5.52;100.00
46087;BME280;31824;49.648;8.640;2023-12-14T02:35:04;99519.41;;;5.58;100.00
46087;BME280;31824;49.648;8.640;2023-12-14T02:38:07;99522.94;;;5.59;100.00
46087;BME280;31824;49.648;8.640;2023-12-14T02:41:10;99526.31;;;5.58;100.00
46087;BME280;31824;49.648;8.640;2023-12-14T02:44:12;99532.28;;;5.57;100.00
46087;BME280;31824;49.648;8.640;2023-12-14T02:47:13;99531.22;;;5.64;100.00
46087;BME280;31824;49.648;8.640;2023-12-14T02:50:15;99540.72;;;5.63;100.00
46087;BME280;31824;49.648;8.640;2023-12-14T02:53:19;99538.88;;;5.62;100.00
46087;BME280;31824;49.648;8.640;2023-12-14T02:56:21;99545.59;;;5.60;100.00
46087;BME280;31824;49.648;8.640;2023-12-14T02:59:23;99552.06;;;5.55;100.00
46087;BME280;31824;49.648;8.640;2023-12-14T03:02:24;99550.81;;;5.60;100.00
46087;BME280;31824;49.648;8.640;2023-12-14T03:05:26;99562.94;;;5.68;100.00
46087;BME280;31824;49.648;8.640;2023-12-14T03:08:30;99568.16;;;5.68;100.00
46087;BME280;31824;49.648;8.640;2023-12-14T03:11:31;99569.22;;;5.70;100.00
46087;BME280;31824;49.648;8.640;2023-12-14T03:14:33;99573.34;;;5.68;100.00
46087;BME280;31824;49.648;8.640;2023-12-14T03:17:35;99581.16;;;5.68;100.00
46087;BME280;31824;49.648;8.640;2023-12-14T03:20:43;99574.75;;;5.65;100.00
46087;BME280;31824;49.648;8.640;2023-12-14T03:23:46;99577.06;;;5.70;100.00
46087;BME280;31824;49.648;8.640;2023-12-14T03:26:50;99580.56;;;5.71;100.00
46087;BME280;31824;49.648;8.640;2023-12-14T03:29:51;99589.19;;;5.70;100.00
46087;BME280;31824;49.648;8.640;2023-12-14T03:32:53;99588.25;;;5.69;100.00
46087;BME280;31824;49.648;8.640;2023-12-14T03:35:55;99599.41;;;5.68;100.00
46087;BME280;31824;49.648;8.640;2023-12-14T03:38:59;99608.31;;;5.70;100.00
46087;BME280;31824;49.648;8.640;2023-12-14T03:42:01;99609.56;;;5.74;100.00
46087;BME280;31824;49.648;8.640;2023-12-14T03:45:03;99620.44;;;5.70;100.00
46087;BME280;31824;49.648;8.640;2023-12-14T03:48:05;99629.47;;;5.65;100.00
46087;BME280;31824;49.648;8.640;2023-12-14T03:51:07;99631.47;;;5.67;100.00
46087;BME280;31824;49.648;8.640;2023-12-14T03:54:10;99628.72;;;5.74;100.00
46087;BME280;31824;49.648;8.640;2023-12-14T03:57:14;99630.69;;;5.68;100.00
46087;BME280;31824;49.648;8.640;2023-12-14T04:00:16;99629.94;;;5.69;100.00
46087;BME280;31824;49.648;8.640;2023-12-14T04:03:18;99642.50;;;5.73;100.00
46087;BME280;31824;49.648;8.640;2023-12-14T04:06:20;99643.59;;;5.75;100.00
46087;BME280;31824;49.648;8.640;2023-12-14T04:09:23;99641.75;;;5.74;100.00
46087;BME280;31824;49.648;8.640;2023-12-14T04:12:25;99655.53;;;5.73;100.00
46087;BME280;31824;49.648;8.640;2023-12-14T04:15:27;99658.44;;;5.77;100.00
46087;BME280;31824;49.648;8.640;2023-12-14T04:18:29;99663.25;;;5.81;100.00
46087;BME280;31824;49.648;8.640;2023-12-14T04:21:31;99661.69;;;5.83;100.00
46087;BME280;31824;49.648;8.640;2023-12-14T04:24:34;99664.91;;;5.80;100.00
46087;BME280;31824;49.648;8.640;2023-12-14T04:27:36;99666.72;;;5.72;100.00
46087;BME280;31824;49.648;8.640;2023-12-14T04:30:40;99670.72;;;5.78;100.00
46087;BME280;31824;49.648;8.640;2023-12-14T04:33:48;99674.88;;;5.75;100.00
46087;BME280;31824;49.648;8.640;2023-12-14T04:36:52;99681.16;;;5.78;100.00
46087;BME280;31824;49.648;8.640;2023-12-14T04:40:00;99681.75;;;5.75;100.00
46087;BME280;31824;49.648;8.640;2023-12-14T04:43:02;99692.34;;;5.77;100.00
46087;BME280;31824;49.648;8.640;2023-12-14T04:46:04;99696.84;;;5.86;100.00
46087;BME280;31824;49.648;8.640;2023-12-14T04:49:07;99694.97;;;5.85;100.00
46087;BME280;31824;49.648;8.640;2023-12-14T04:52:09;99706.31;;;5.86;100.00
46087;BME280;31824;49.648;8.640;2023-12-14T04:55:13;99713.84;;;5.91;100.00
46087;BME280;31824;49.648;8.640;2023-12-14T04:58:15;99722.28;;;5.89;100.00
46087;BME280;31824;49.648;8.640;2023-12-14T05:01:17;99718.97;;;5.99;100.00
46087;BME280;31824;49.648;8.640;2023-12-14T05:04:18;99720.75;;;5.91;100.00
46087;BME280;31824;49.648;8.640;2023-12-14T05:07:20;99739.00;;;5.91;100.00
46087;BME280;31824;49.648;8.640;2023-12-14T05:10:26;99740.84;;;5.92;100.00
46087;BME280;31824;49.648;8.640;2023-12-14T05:13:27;99746.81;;;5.91;100.00
46087;BME280;31824;49.648;8.640;2023-12-14T05:16:29;99748.97;;;5.95;100.00
46087;BME280;31824;49.648;8.640;2023-12-14T05:19:32;99762.53;;;6.00;100.00
46087;BME280;31824;49.648;8.640;2023-12-14T05:22:38;99757.91;;;5.97;100.00
46087;BME280;31824;49.648;8.640;2023-12-14T05:25:42;99766.22;;;6.02;100.00
46087;BME280;31824;49.648;8.640;2023-12-14T05:28:45;99780.41;;;5.97;100.00
46087;BME280;31824;49.648;8.640;2023-12-14T05:31:47;99784.31;;;6.00;100.00
46087;BME280;31824;49.648;8.640;2023-12-14T05:34:49;99774.94;;;6.02;100.00
46087;BME280;31824;49.648;8.640;2023-12-14T05:37:51;99788.78;;;6.01;100.00
46087;BME280;31824;49.648;8.640;2023-12-14T05:40:54;99789.84;;;6.03;100.00
46087;BME280;31824;49.648;8.640;2023-12-14T05:43:56;99804.41;;;6.01;100.00
46087;BME280;31824;49.648;8.640;2023-12-14T05:46:58;99808.84;;;6.02;100.00
46087;BME280;31824;49.648;8.640;2023-12-14T05:50:00;99817.00;;;6.05;100.00
46087;BME280;31824;49.648;8.640;2023-12-14T05:53:02;99827.91;;;6.10;100.00
46087;BME280;31824;49.648;8.640;2023-12-14T05:56:07;99834.84;;;6.18;100.00
46087;BME280;31824;49.648;8.640;2023-12-14T05:59:09;99834.84;;;6.18;100.00
46087;BME280;31824;49.648;8.640;2023-12-14T06:02:10;99833.78;;;6.16;100.00
46087;BME280;31824;49.648;8.640;2023-12-14T06:05:13;99846.31;;;6.12;100.00
46087;BME280;31824;49.648;8.640;2023-12-14T06:08:15;99846.16;;;6.10;100.00
46087;BME280;31824;49.648;8.640;2023-12-14T06:11:18;99853.41;;;6.21;100.00
46087;BME280;31824;49.648;8.640;2023-12-14T06:14:21;99867.22;;;6.20;100.00
46087;BME280;31824;49.648;8.640;2023-12-14T06:17:23;99868.75;;;6.18;100.00
46087;BME280;31824;49.648;8.640;2023-12-14T06:20:27;99872.59;;;6.22;100.00
46087;BME280;31824;49.648;8.640;2023-12-14T06:23:54;99885.78;;;6.15;100.00
46087;BME280;31824;49.648;8.640;2023-12-14T06:26:58;99875.78;;;6.11;100.00
46087;BME280;31824;49.648;8.640;2023-12-14T06:29:59;99892.66;;;6.14;100.00
46087;BME280;31824;49.648;8.640;2023-12-14T06:33:02;99884.38;;;6.10;100.00
46087;BME280;31824;49.648;8.640;2023-12-14T06:36:07;99898.31;;;6.10;100.00
46087;BME280;31824;49.648;8.640;2023-12-14T06:39:09;99900.44;;;6.05;100.00
46087;BME280;31824;49.648;8.640;2023-12-14T06:42:13;99904.41;;;6.02;100.00
46087;BME280;31824;49.648;8.640;2023-12-14T06:45:15;99902.56;;;6.01;100.00
46087;BME280;31824;49.648;8.640;2023-12-14T06:48:17;99907.63;;;5.99;100.00
46087;BME280;31824;49.648;8.640;2023-12-14T06:51:19;99916.94;;;5.97;100.00
46087;BME280;31824;49.648;8.640;2023-12-14T06:54:20;99920.53;;;6.06;100.00
46087;BME280;31824;49.648;8.640;2023-12-14T06:57:24;99926.56;;;6.14;100.00
46087;BME280;31824;49.648;8.640;2023-12-14T07:00:28;99934.81;;;6.10;100.00
46087;BME280;31824;49.648;8.640;2023-12-14T07:03:34;99940.47;;;6.06;100.00
46087;BME280;31824;49.648;8.640;2023-12-14T07:06:36;99947.72;;;6.08;100.00
46087;BME280;31824;49.648;8.640;2023-12-14T07:09:37;99956.19;;;6.15;100.00
46087;BME280;31824;49.648;8.640;2023-12-14T07:12:40;99964.78;;;6.14;100.00
46087;BME280;31824;49.648;8.640;2023-12-14T07:15:43;99959.72;;;6.15;100.00
46087;BME280;31824;49.648;8.640;2023-12-14T07:18:45;99966.88;;;6.09;100.00
46087;BME280;31824;49.648;8.640;2023-12-14T07:21:47;99973.50;;;6.14;100.00
46087;BME280;31824;49.648;8.640;2023-12-14T07:24:49;99979.22;;;6.19;100.00
46087;BME280;31824;49.648;8.640;2023-12-14T07:28:01;99993.41;;;6.30;100.00
46087;BME280;31824;49.648;8.640;2023-12-14T07:31:04;99995.56;;;6.34;100.00
46087;BME280;31824;49.648;8.640;2023-12-14T07:34:06;99991.72;;;6.30;100.00
46087;BME280;31824;49.648;8.640;2023-12-14T07:37:08;99999.41;;;6.37;100.00
46087;BME280;31824;49.648;8.640;2023-12-14T07:40:10;100006.03;;;6.42;100.00
46087;BME280;31824;49.648;8.640;2023-12-14T07:43:14;100001.94;;;6.45;100.00
46087;BME280;31824;49.648;8.640;2023-12-14T07:46:16;100026.09;;;6.35;100.00
46087;BME280;31824;49.648;8.640;2023-12-14T07:49:17;100027.34;;;6.38;100.00
46087;BME280;31824;49.648;8.640;2023-12-14T07:52:24;100041.66;;;6.42;100.00
46087;BME280;31824;49.648;8.640;2023-12-14T07:55:25;100042.72;;;6.44;100.00
46087;BME280;31824;49.648;8.640;2023-12-14T07:58:29;100044.78;;;6.55;100.00
46087;BME280;31824;49.648;8.640;2023-12-14T08:01:31;100046.03;;;6.59;100.00
46087;BME280;31824;49.648;8.640;2023-12-14T08:04:33;100051.91;;;6.65;100.00
46087;BME280;31824;49.648;8.640;2023-12-14T08:07:35;100056.97;;;6.64;100.00
46087;BME280;31824;49.648;8.640;2023-12-14T08:10:37;100064.75;;;6.55;100.00
46087;BME280;31824;49.648;8.640;2023-12-14T08:13:40;100065.13;;;6.67;100.00
46087;BME280;31824;49.648;8.640;2023-12-14T08:16:42;100068.53;;;6.74;100.00
46087;BME280;31824;49.648;8.640;2023-12-14T08:19:44;100081.63;;;6.83;100.00
46087;BME280;31824;49.648;8.640;2023-12-14T08:22:46;100089.19;;;6.89;100.00
46087;BME280;31824;49.648;8.640;2023-12-14T08:25:48;100094.09;;;6.86;100.00
46087;BME280;31824;49.648;8.640;2023-12-14T08:28:51;100103.00;;;6.88;100.00
46087;BME280;31824;49.648;8.640;2023-12-14T08:31:53;100103.00;;;6.88;100.00
46087;BME280;31824;49.648;8.640;2023-12-14T08:34:58;100116.56;;;6.92;100.00
46087;BME280;31824;49.648;8.640;2023-12-14T08:38:03;100130.97;;;6.89;100.00
46087;BME280;31824;49.648;8.640;2023-12-14T08:41:05;100135.13;;;6.87;100.00
46087;BME280;31824;49.648;8.640;2023-12-14T08:44:09;100138.97;;;6.90;100.00
46087;BME280;31824;49.648;8.640;2023-12-14T08:47:11;100147.91;;;6.92;100.00
46087;BME280;31824;49.648;8.640;2023-12-14T08:50:13;100158.81;;;6.97;100.00
46087;BME280;31824;49.648;8.640;2023-12-14T08:53:15;100163.16;;;7.05;100.00
46087;BME280;31824;49.648;8.640;2023-12-14T08:56:17;100167.63;;;7.06;100.00
46087;BME280;31824;49.648;8.640;2023-12-14T08:59:20;100171.16;;;7.07;100.00
46087;BME280;31824;49.648;8.640;2023-12-14T09:02:22;100176.97;;;7.04;100.00
46087;BME280;31824;49.648;8.640;2023-12-14T09:05:24;100186.66;;;7.05;100.00
46087;BME280;31824;49.648;8.640;2023-12-14T09:08:26;100195.59;;;7.07;100.00
46087;BME280;31824;49.648;8.640;2023-12-14T09:11:28;100199.25;;;7.01;100.00
46087;BME280;31824;49.648;8.640;2023-12-14T09:14:31;100201.28;;;7.03;100.00
46087;BME280;31824;49.648;8.640;2023-12-14T09:17:33;100207.13;;;7.09;100.00
46087;BME280;31824;49.648;8.640;2023-12-14T09:20:38;100214.22;;;7.10;100.00
46087;BME280;31824;49.648;8.640;2023-12-14T09:23:44;100219.00;;;7.15;100.00
46087;BME280;31824;49.648;8.640;2023-12-14T09:26:46;100225.94;;;7.14;100.00
46087;BME280;31824;49.648;8.640;2023-12-14T09:29:49;100231.00;;;7.13;100.00
46087;BME280;31824;49.648;8.640;2023-12-14T09:32:51;100231.31;;;7.16;100.00
46087;BME280;31824;49.648;8.640;2023-12-14T09:35:56;100253.72;;;7.14;100.00
46087;BME280;31824;49.648;8.640;2023-12-14T09:38:58;100260.97;;;7.16;100.00
46087;BME280;31824;49.648;8.640;2023-12-14T09:42:02;100262.66;;;7.16;100.00
46087;BME280;31824;49.648;8.640;2023-12-14T09:45:08;100275.22;;;7.11;100.00
46087;BME280;31824;49.648;8.640;2023-12-14T09:48:11;100285.22;;;7.15;100.00
46087;BME280;31824;49.648;8.640;2023-12-14T09:51:15;100281.69;;;7.15;100.00
46087;BME280;31824;49.648;8.640;2023-12-14T09:54:20;100292.16;;;7.15;100.00
46087;BME280;31824;49.648;8.640;2023-12-14T09:57:21;100289.09;;;7.19;100.00
46087;BME280;31824;49.648;8.640;2023-12-14T10:00:34;100292.63;;;7.19;100.00
46087;BME280;31824;49.648;8.640;2023-12-14T10:03:36;100291.50;;;7.33;100.00
46087;BME280;31824;49.648;8.640;2023-12-14T10:06:39;100302.28;;;7.36;100.00
46087;BME280;31824;49.648;8.640;2023-12-14T10:09:41;100307.75;;;7.47;100.00
46087;BME280;31824;49.648;8.640;2023-12-14T10:12:53;100304.25;;;7.55;100.00
46087;BME280;31824;49.648;8.640;2023-12-14T10:15:56;100300.47;;;7.69;100.00
46087;BME280;31824;49.648;8.640;2023-12-14T10:18:58;100305.00;;;7.29;100.00
46087;BME280;31824;49.648;8.640;2023-12-14T10:22:01;100307.13;;;7.24;100.00
46087;BME280;31824;49.648;8.640;2023-12-14T10:25:04;100314.00;;;7.40;100.00
46087;BME280;31824;49.648;8.640;2023-12-14T10:28:07;100306.66;;;7.53;100.00
46087;BME280;31824;49.648;8.640;2023-12-14T10:31:11;100300.41;;;7.60;100.00
46087;BME280;31824;49.648;8.640;2023-12-14T10:34:14;100317.72;;;7.75;100.00
46087;BME280;31824;49.648;8.640;2023-12-14T10:37:17;100321.75;;;7.81;100.00
46087;BME280;31824;49.648;8.640;2023-12-14T10:40:20;100325.59;;;7.84;100.00
46087;BME280;31824;49.648;8.640;2023-12-14T10:43:22;100330.00;;;7.68;100.00
46087;BME280;31824;49.648;8.640;2023-12-14T10:46:48;100335.19;;;7.59;100.00
46087;BME280;31824;49.648;8.640;2023-12-14T10:49:54;100339.28;;;7.48;100.00
46087;BME280;31824;49.648;8.640;2023-12-14T10:52:56;100341.28;;;7.51;100.00
46087;BME280;31824;49.648;8.640;2023-12-14T10:56:01;100348.78;;;7.48;100.00
46087;BME280;31824;49.648;8.640;2023-12-14T10:59:10;100344.31;;;7.71;100.00
46087;BME280;31824;49.648;8.640;2023-12-14T11:02:14;100348.00;;;7.73;100.00
46087;BME280;31824;49.648;8.640;2023-12-14T11:05:17;100350.97;;;7.76;100.00
46087;BME280;31824;49.648;8.640;2023-12-14T11:08:25;100351.56;;;7.74;100.00
46087;BME280;31824;49.648;8.640;2023-12-14T11:11:28;100356.59;;;7.72;100.00
46087;BME280;31824;49.648;8.640;2023-12-14T11:14:30;100364.56;;;7.65;100.00
46087;BME280;31824;49.648;8.640;2023-12-14T11:17:34;100365.34;;;7.64;100.00
46087;BME280;31824;49.648;8.640;2023-12-14T11:20:47;100366.00;;;7.70;100.00
46087;BME280;31824;49.648;8.640;2023-12-14T11:23:50;100361.84;;;7.72;100.00
46087;BME280;31824;49.648;8.640;2023-12-14T11:26:54;100373.72;;;7.77;100.00
46087;BME280;31824;49.648;8.640;2023-12-14T11:29:56;100377.13;;;7.76;100.00
46087;BME280;31824;49.648;8.640;2023-12-14T11:33:01;100389.81;;;7.65;100.00
46087;BME280;31824;49.648;8.640;2023-12-14T11:36:03;100393.50;;;7.67;100.00
46087;BME280;31824;49.648;8.640;2023-12-14T11:39:05;100405.97;;;7.69;100.00
46087;BME280;31824;49.648;8.640;2023-12-14T11:42:07;100404.31;;;7.70;100.00
46087;BME280;31824;49.648;8.640;2023-12-14T11:45:11;100405.09;;;7.77;100.00
46087;BME280;31824;49.648;8.640;2023-12-14T11:50:09;100417.03;;;7.67;100.00
46087;BME280;31824;49.648;8.640;2023-12-14T11:53:13;100413.78;;;7.60;100.00
46087;BME280;31824;49.648;8.640;2023-12-14T11:56:17;100423.81;;;7.65;100.00
46087;BME280;31824;49.648;8.640;2023-12-14T11:59:19;100420.59;;;7.67;100.00
46087;BME280;31824;49.648;8.640;2023-12-14T12:02:23;100423.84;;;7.73;100.00
46087;BME280;31824;49.648;8.640;2023-12-14T12:05:38;100422.78;;;7.71;100.00
46087;BME280;31824;49.648;8.640;2023-12-14T12:08:41;100422.41;;;7.68;100.00
46087;BME280;31824;49.648;8.640;2023-12-14T12:11:44;100425.03;;;7.68;100.00
46087;BME280;31824;49.648;8.640;2023-12-14T12:14:47;100427.84;;;7.70;100.00
46087;BME280;31824;49.648;8.640;2023-12-14T12:17:51;100433.41;;;7.73;100.00
46087;BME280;31824;49.648;8.640;2023-12-14T12:20:54;100437.63;;;7.64;100.00
46087;BME280;31824;49.648;8.640;2023-12-14T12:23:56;100440.69;;;7.59;100.00
46087;BME280;31824;49.648;8.640;2023-12-14T12:26:57;100443.13;;;7.58;100.00
46087;BME280;31824;49.648;8.640;2023-12-14T12:29:59;100447.75;;;7.60;100.00
46087;BME280;31824;49.648;8.640;2023-12-14T12:33:01;100439.75;;;7.59;100.00
46087;BME280;31824;49.648;8.640;2023-12-14T12:36:06;100441.50;;;7.67;100.00
46087;BME280;31824;49.648;8.640;2023-12-14T12:39:09;100446.16;;;7.70;100.00
46087;BME280;31824;49.648;8.640;2023-12-14T12:42:11;100448.84;;;7.63;100.00
46087;BME280;31824;49.648;8.640;2023-12-14T12:45:13;100446.75;;;7.67;100.00
46087;BME280;31824;49.648;8.640;2023-12-14T12:48:14;100454.91;;;7.70;100.00
46087;BME280;31824;49.648;8.640;2023-12-14T12:51:18;100454.63;;;7.76;100.00
46087;BME280;31824;49.648;8.640;2023-12-14T12:54:20;100456.50;;;7.77;100.00
46087;BME280;31824;49.648;8.640;2023-12-14T12:57:21;100459.59;;;7.82;100.00
46087;BME280;31824;49.648;8.640;2023-12-14T13:00:23;100463.16;;;7.82;100.00
46087;BME280;31824;49.648;8.640;2023-12-14T13:03:25;100460.25;;;7.88;100.00
46087;BME280;31824;49.648;8.640;2023-12-14T13:06:28;100458.28;;;7.94;100.00
46087;BME280;31824;49.648;8.640;2023-12-14T13:10:45;100467.09;;;7.94;100.00
46087;BME280;31824;49.648;8.640;2023-12-14T13:13:47;100460.53;;;7.82;100.00
46087;BME280;31824;49.648;8.640;2023-12-14T13:16:49;100473.25;;;7.79;100.00
46087;BME280;31824;49.648;8.640;2023-12-14T13:19:51;100477.63;;;7.87;100.00
46087;BME280;31824;49.648;8.640;2023-12-14T13:22:54;100483.72;;;7.79;100.00
46087;BME280;31824;49.648;8.640;2023-12-14T13:25:57;100492.34;;;7.78;100.00
46087;BME280;31824;49.648;8.640;2023-12-14T13:28:59;100493.88;;;7.76;100.00
46087;BME280;31824;49.648;8.640;2023-12-14T13:32:01;100497.59;;;7.78;100.00
46087;BME280;31824;49.648;8.640;2023-12-14T13:35:04;100505.06;;;7.75;100.00
46087;BME280;31824;49.648;8.640;2023-12-14T13:38:06;100506.47;;;7.71;100.00
46087;BME280;31824;49.648;8.640;2023-12-14T13:41:10;100507.22;;;7.70;100.00
46087;BME280;31824;49.648;8.640;2023-12-14T13:44:12;100516.13;;;7.72;100.00
46087;BME280;31824;49.648;8.640;2023-12-14T13:47:14;100523.22;;;7.73;100.00
46087;BME280;31824;49.648;8.640;2023-12-14T13:50:16;100517.56;;;7.77;100.00
46087;BME280;31824;49.648;8.640;2023-12-14T13:53:17;100526.25;;;7.85;100.00
46087;BME280;31824;49.648;8.640;2023-12-14T13:56:21;100539.22;;;7.92;100.00
46087;BME280;31824;49.648;8.640;2023-12-14T13:59:23;100536.59;;;7.92;100.00
46087;BME280;31824;49.648;8.640;2023-12-14T14:02:25;100535.59;;;7.83;100.00
46087;BME280;31824;49.648;8.640;2023-12-14T14:05:30;100540.94;;;7.76;100.00
46087;BME280;31824;49.648;8.640;2023-12-14T14:08:32;100552.66;;;7.80;100.00
46087;BME280;31824;49.648;8.640;2023-12-14T14:11:36;100557.56;;;7.76;100.00
46087;BME280;31824;49.648;8.640;2023-12-14T14:14:38;100567.44;;;7.63;100.00
46087;BME280;31824;49.648;8.640;2023-12-14T14:17:40;100579.09;;;7.58;100.00
46087;BME280;31824;49.648;8.640;2023-12-14T14:20:42;100580.09;;;7.51;100.00
46087;BME280;31824;49.648;8.640;2023-12-14T14:23:44;100588.94;;;7.44;100.00
46087;BME280;31824;49.648;8.640;2023-12-14T14:26:47;100596.09;;;7.38;100.00
46087;BME280;31824;49.648;8.640;2023-12-14T14:29:49;100598.38;;;7.35;100.00
46087;BME280;31824;49.648;8.640;2023-12-14T14:32:51;100611.69;;;7.30;100.00
46087;BME280;31824;49.648;8.640;2023-12-14T14:35:53;100620.28;;;7.29;100.00
46087;BME280;31824;49.648;8.640;2023-12-14T14:38:55;100619.03;;;7.25;100.00
46087;BME280;31824;49.648;8.640;2023-12-14T14:42:00;100630.38;;;7.25;100.00
46087;BME280;31824;49.648;8.640;2023-12-14T14:45:02;100636.19;;;7.23;100.00
46087;BME280;31824;49.648;8.640;2023-12-14T14:48:07;100628.03;;;7.20;100.00
46087;BME280;31824;49.648;8.640;2023-12-14T14:51:10;100647.97;;;7.19;100.00
46087;BME280;31824;49.648;8.640;2023-12-14T14:54:12;100647.06;;;7.19;100.00
46087;BME280;31824;49.648;8.640;2023-12-14T14:57:15;100652.44;;;7.20;100.00
46087;BME280;31824;49.648;8.640;2023-12-14T15:00:18;100658.63;;;7.21;100.00
46087;BME280;31824;49.648;8.640;2023-12-14T15:03:20;100673.94;;;7.18;100.00
46087;BME280;31824;49.648;8.640;2023-12-14T15:06:23;100668.94;;;7.12;100.00
46087;BME280;31824;49.648;8.640;2023-12-14T15:09:25;100674.75;;;7.09;100.00
46087;BME280;31824;49.648;8.640;2023-12-14T15:12:28;100672.88;;;7.08;100.00
46087;BME280;31824;49.648;8.640;2023-12-14T15:15:30;100684.13;;;7.07;100.00
46087;BME280;31824;49.648;8.640;2023-12-14T15:18:33;100689.91;;;7.05;100.00
46087;BME280;31824;49.648;8.640;2023-12-14T15:21:42;100697.94;;;7.06;100.00
46087;BME280;31824;49.648;8.640;2023-12-14T15:24:44;100706.75;;;7.00;100.00
46087;BME280;31824;49.648;8.640;2023-12-14T15:27:48;100710.09;;;6.99;100.00
46087;BME280;31824;49.648;8.640;2023-12-14T15:30:50;100717.19;;;7.00;100.00
46087;BME280;31824;49.648;8.640;2023-12-14T15:33:52;100729.91;;;6.97;100.00
46087;BME280;31824;49.648;8.640;2023-12-14T15:36:54;100741.16;;;6.88;100.00
46087;BME280;31824;49.648;8.640;2023-12-14T15:39:55;100740.22;;;6.88;100.00
46087;BME280;31824;49.648;8.640;2023-12-14T15:42:59;100739.50;;;6.82;100.00
46087;BME280;31824;49.648;8.640;2023-12-14T15:46:00;100751.81;;;6.83;100.00
46087;BME280;31824;49.648;8.640;2023-12-14T15:49:02;100755.41;;;6.76;100.00
46087;BME280;31824;49.648;8.640;2023-12-14T15:52:05;100761.03;;;6.72;100.00
46087;BME280;31824;49.648;8.640;2023-12-14T15:55:07;100767.69;;;6.77;100.00
46087;BME280;31824;49.648;8.640;2023-12-14T15:58:11;100774.25;;;6.73;100.00
46087;BME280;31824;49.648;8.640;2023-12-14T16:01:12;100783.00;;;6.74;100.00
46087;BME280;31824;49.648;8.640;2023-12-14T16:04:16;100795.31;;;6.75;100.00
46087;BME280;31824;49.648;8.640;2023-12-14T16:07:18;100789.16;;;6.74;100.00